Terminal Aerodrome Forecast
Issued by NWS Pittsburgh, PA

Current Version | Previous Version | Text Only | Print | Product List | Glossary Off
Versions: 1 2 3 4 5 6 7 8 9 10 11 12 13 14 15 16 17 18 19 20 21 22 23 24 25 26 27 28

520
FTUS41 KPBZ 142339
TAFPIT
TAF
KPIT 142339Z 1500/1606 00000KT P6SM BKN040
     FM150100 14006KT P6SM SKC
     FM151500 15007KT P6SM BKN250
     FM152200 18007KT P6SM VCSH OVC050
     FM152300 19007KT P6SM -SHRA OVC030
     FM160300 20010KT P6SM -SHRA OVC015
     FM160500 22009KT P6SM VCSH OVC008=

USA.gov is the U.S. government's official web portal to all federal, state and local government web resources and services.